Malvern, Pennsylvania
Current Conditions -  °F | °C
As of 4:54 AM on Saturday 01 Nov 2014 (Local Time) from KPTW Reporting Station
Light Rain Light Rain  
Wind Chill: 39°   Ceiling: 2400
Heat Index: 46°   Visibility: 8mi
Dew Point: 42°   Wind: 16mph
Humidity: 86%   Direction: 30°NNE
Pressure: 29.8"   Gusts: 25mph
Location:  40.04°N, 75.51°W
Report Text: KPTW 010854Z AUTO 03014G22KT 8SM -RA BKN024 OVC055 08/06 A2980 RMK AO2 RAB00 SLP090 P0001 60001 T00780056 57007
Loading
Personal Weather Stations






























Interactive Weather Map
Tropical Storm Tracking
New forecast layout! Learn more

10-Day Weather Forecast

Advertisements
Track Severe Weather on mobile